sensor_id;sensor_type;location;lat;lon;timestamp;P1;durP1;ratioP1;P2;durP2;ratioP2
27313;SDS011;14800;48.174;9.798;2023-08-01T00:02:24;3.72;;;1.83;;
27313;SDS011;14800;48.174;9.798;2023-08-01T00:04:49;2.83;;;2.22;;
27313;SDS011;14800;48.174;9.798;2023-08-01T00:07:15;4.00;;;2.38;;
27313;SDS011;14800;48.174;9.798;2023-08-01T00:09:40;2.80;;;2.00;;
27313;SDS011;14800;48.174;9.798;2023-08-01T00:12:06;3.40;;;2.47;;
27313;SDS011;14800;48.174;9.798;2023-08-01T00:14:32;2.72;;;2.38;;
27313;SDS011;14800;48.174;9.798;2023-08-01T00:16:57;3.28;;;2.45;;
27313;SDS011;14800;48.174;9.798;2023-08-01T00:19:23;2.10;;;1.70;;
27313;SDS011;14800;48.174;9.798;2023-08-01T00:21:49;3.00;;;2.00;;
27313;SDS011;14800;48.174;9.798;2023-08-01T00:24:14;2.50;;;2.05;;
27313;SDS011;14800;48.174;9.798;2023-08-01T00:26:40;3.60;;;2.20;;
27313;SDS011;14800;48.174;9.798;2023-08-01T00:29:05;3.00;;;2.22;;
27313;SDS011;14800;48.174;9.798;2023-08-01T00:31:31;3.63;;;2.28;;
27313;SDS011;14800;48.174;9.798;2023-08-01T00:33:56;2.50;;;2.25;;
27313;SDS011;14800;48.174;9.798;2023-08-01T00:36:22;3.75;;;2.10;;
27313;SDS011;14800;48.174;9.798;2023-08-01T00:38:48;2.58;;;2.28;;
27313;SDS011;14800;48.174;9.798;2023-08-01T00:41:14;2.35;;;2.10;;
27313;SDS011;14800;48.174;9.798;2023-08-01T00:43:39;4.85;;;2.30;;
27313;SDS011;14800;48.174;9.798;2023-08-01T00:46:06;2.80;;;2.35;;
27313;SDS011;14800;48.174;9.798;2023-08-01T00:48:33;3.25;;;2.45;;
27313;SDS011;14800;48.174;9.798;2023-08-01T00:51:07;3.03;;;2.17;;
27313;SDS011;14800;48.174;9.798;2023-08-01T00:53:35;2.95;;;1.98;;
27313;SDS011;14800;48.174;9.798;2023-08-01T00:56:01;3.92;;;2.25;;
27313;SDS011;14800;48.174;9.798;2023-08-01T00:58:27;3.53;;;2.22;;
27313;SDS011;14800;48.174;9.798;2023-08-01T01:00:52;2.50;;;2.05;;
27313;SDS011;14800;48.174;9.798;2023-08-01T01:03:18;3.13;;;2.30;;
27313;SDS011;14800;48.174;9.798;2023-08-01T01:05:49;2.22;;;1.95;;
27313;SDS011;14800;48.174;9.798;2023-08-01T01:08:18;5.60;;;2.60;;
27313;SDS011;14800;48.174;9.798;2023-08-01T01:10:44;4.28;;;2.35;;
27313;SDS011;14800;48.174;9.798;2023-08-01T01:13:10;3.53;;;2.38;;
27313;SDS011;14800;48.174;9.798;2023-08-01T01:15:35;3.05;;;2.25;;
27313;SDS011;14800;48.174;9.798;2023-08-01T01:18:01;4.13;;;2.50;;
27313;SDS011;14800;48.174;9.798;2023-08-01T01:20:30;2.60;;;2.40;;
27313;SDS011;14800;48.174;9.798;2023-08-01T01:22:59;4.50;;;2.05;;
27313;SDS011;14800;48.174;9.798;2023-08-01T01:25:25;2.30;;;2.05;;
27313;SDS011;14800;48.174;9.798;2023-08-01T01:27:52;2.10;;;1.90;;
27313;SDS011;14800;48.174;9.798;2023-08-01T01:30:19;5.32;;;2.72;;
27313;SDS011;14800;48.174;9.798;2023-08-01T01:32:45;3.75;;;2.28;;
27313;SDS011;14800;48.174;9.798;2023-08-01T01:35:11;2.95;;;2.10;;
27313;SDS011;14800;48.174;9.798;2023-08-01T01:37:37;2.83;;;2.13;;
27313;SDS011;14800;48.174;9.798;2023-08-01T01:40:02;3.25;;;2.10;;
27313;SDS011;14800;48.174;9.798;2023-08-01T01:42:28;2.35;;;2.15;;
27313;SDS011;14800;48.174;9.798;2023-08-01T01:44:54;3.22;;;2.45;;
27313;SDS011;14800;48.174;9.798;2023-08-01T01:47:19;3.15;;;2.33;;
27313;SDS011;14800;48.174;9.798;2023-08-01T01:49:45;5.43;;;2.17;;
27313;SDS011;14800;48.174;9.798;2023-08-01T01:52:10;3.63;;;2.55;;
27313;SDS011;14800;48.174;9.798;2023-08-01T01:54:36;3.63;;;2.42;;
27313;SDS011;14800;48.174;9.798;2023-08-01T01:57:02;2.70;;;2.25;;
27313;SDS011;14800;48.174;9.798;2023-08-01T01:59:27;2.88;;;2.25;;
27313;SDS011;14800;48.174;9.798;2023-08-01T02:01:53;4.68;;;2.45;;
27313;SDS011;14800;48.174;9.798;2023-08-01T02:04:18;2.88;;;2.10;;
27313;SDS011;14800;48.174;9.798;2023-08-01T02:06:44;4.50;;;2.40;;
27313;SDS011;14800;48.174;9.798;2023-08-01T02:09:10;2.83;;;2.33;;
27313;SDS011;14800;48.174;9.798;2023-08-01T02:11:36;2.60;;;2.40;;
27313;SDS011;14800;48.174;9.798;2023-08-01T02:14:01;3.75;;;2.15;;
27313;SDS011;14800;48.174;9.798;2023-08-01T02:16:28;4.00;;;2.60;;
27313;SDS011;14800;48.174;9.798;2023-08-01T02:18:53;3.72;;;2.42;;
27313;SDS011;14800;48.174;9.798;2023-08-01T02:21:19;2.50;;;2.22;;
27313;SDS011;14800;48.174;9.798;2023-08-01T02:23:44;3.95;;;2.88;;
27313;SDS011;14800;48.174;9.798;2023-08-01T02:26:10;3.83;;;2.63;;
27313;SDS011;14800;48.174;9.798;2023-08-01T02:28:35;3.25;;;2.45;;
27313;SDS011;14800;48.174;9.798;2023-08-01T02:31:01;4.82;;;2.80;;
27313;SDS011;14800;48.174;9.798;2023-08-01T02:33:27;3.67;;;2.60;;
27313;SDS011;14800;48.174;9.798;2023-08-01T02:35:52;4.68;;;2.65;;
27313;SDS011;14800;48.174;9.798;2023-08-01T02:38:18;3.53;;;2.75;;
27313;SDS011;14800;48.174;9.798;2023-08-01T02:40:43;4.20;;;2.42;;
27313;SDS011;14800;48.174;9.798;2023-08-01T02:43:09;5.32;;;2.90;;
27313;SDS011;14800;48.174;9.798;2023-08-01T02:45:35;3.75;;;2.70;;
27313;SDS011;14800;48.174;9.798;2023-08-01T02:48:00;4.40;;;2.95;;
27313;SDS011;14800;48.174;9.798;2023-08-01T02:50:26;3.15;;;2.55;;
27313;SDS011;14800;48.174;9.798;2023-08-01T02:52:51;5.32;;;2.97;;
27313;SDS011;14800;48.174;9.798;2023-08-01T02:55:17;5.75;;;3.00;;
27313;SDS011;14800;48.174;9.798;2023-08-01T02:57:43;5.57;;;2.67;;
27313;SDS011;14800;48.174;9.798;2023-08-01T03:00:08;7.50;;;2.50;;
27313;SDS011;14800;48.174;9.798;2023-08-01T03:02:36;3.92;;;2.55;;
27313;SDS011;14800;48.174;9.798;2023-08-01T03:05:04;3.60;;;3.00;;
27313;SDS011;14800;48.174;9.798;2023-08-01T03:07:32;5.20;;;3.00;;
27313;SDS011;14800;48.174;9.798;2023-08-01T03:09:58;4.03;;;2.70;;
27313;SDS011;14800;48.174;9.798;2023-08-01T03:12:23;5.05;;;2.88;;
27313;SDS011;14800;48.174;9.798;2023-08-01T03:14:49;3.65;;;3.08;;
27313;SDS011;14800;48.174;9.798;2023-08-01T03:17:15;3.38;;;2.63;;
27313;SDS011;14800;48.174;9.798;2023-08-01T03:19:41;4.30;;;2.42;;
27313;SDS011;14800;48.174;9.798;2023-08-01T03:22:07;2.97;;;2.67;;
27313;SDS011;14800;48.174;9.798;2023-08-01T03:24:33;3.58;;;3.10;;
27313;SDS011;14800;48.174;9.798;2023-08-01T03:26:58;3.58;;;2.58;;
27313;SDS011;14800;48.174;9.798;2023-08-01T03:29:24;5.32;;;3.08;;
27313;SDS011;14800;48.174;9.798;2023-08-01T03:31:50;4.97;;;2.80;;
27313;SDS011;14800;48.174;9.798;2023-08-01T03:34:15;3.33;;;2.63;;
27313;SDS011;14800;48.174;9.798;2023-08-01T03:36:41;5.20;;;3.03;;
27313;SDS011;14800;48.174;9.798;2023-08-01T03:39:07;5.53;;;2.95;;
27313;SDS011;14800;48.174;9.798;2023-08-01T03:41:34;4.07;;;3.03;;
27313;SDS011;14800;48.174;9.798;2023-08-01T03:44:00;3.65;;;2.97;;
27313;SDS011;14800;48.174;9.798;2023-08-01T03:46:26;4.05;;;2.90;;
27313;SDS011;14800;48.174;9.798;2023-08-01T03:48:52;5.22;;;3.03;;
27313;SDS011;14800;48.174;9.798;2023-08-01T03:51:17;4.93;;;2.90;;
27313;SDS011;14800;48.174;9.798;2023-08-01T03:53:44;3.42;;;2.85;;
27313;SDS011;14800;48.174;9.798;2023-08-01T03:56:10;4.40;;;3.20;;
27313;SDS011;14800;48.174;9.798;2023-08-01T03:58:36;3.58;;;2.80;;
27313;SDS011;14800;48.174;9.798;2023-08-01T04:01:01;4.47;;;2.80;;
27313;SDS011;14800;48.174;9.798;2023-08-01T04:03:27;5.30;;;3.03;;
27313;SDS011;14800;48.174;9.798;2023-08-01T04:05:53;3.45;;;2.97;;
27313;SDS011;14800;48.174;9.798;2023-08-01T04:08:19;5.63;;;3.03;;
27313;SDS011;14800;48.174;9.798;2023-08-01T04:10:45;4.65;;;3.40;;
27313;SDS011;14800;48.174;9.798;2023-08-01T04:13:10;3.63;;;2.50;;
27313;SDS011;14800;48.174;9.798;2023-08-01T04:15:36;4.60;;;3.30;;
27313;SDS011;14800;48.174;9.798;2023-08-01T04:18:02;4.38;;;3.40;;
27313;SDS011;14800;48.174;9.798;2023-08-01T04:20:27;3.92;;;3.15;;
27313;SDS011;14800;48.174;9.798;2023-08-01T04:22:53;4.45;;;2.90;;
27313;SDS011;14800;48.174;9.798;2023-08-01T04:25:18;5.07;;;2.92;;
27313;SDS011;14800;48.174;9.798;2023-08-01T04:27:44;3.50;;;3.20;;
27313;SDS011;14800;48.174;9.798;2023-08-01T04:30:10;4.18;;;3.17;;
27313;SDS011;14800;48.174;9.798;2023-08-01T04:32:36;4.10;;;3.25;;
27313;SDS011;14800;48.174;9.798;2023-08-01T04:35:01;4.45;;;3.20;;
27313;SDS011;14800;48.174;9.798;2023-08-01T04:37:27;5.05;;;3.63;;
27313;SDS011;14800;48.174;9.798;2023-08-01T04:39:52;4.28;;;3.35;;
27313;SDS011;14800;48.174;9.798;2023-08-01T04:42:18;3.90;;;3.35;;
27313;SDS011;14800;48.174;9.798;2023-08-01T04:44:43;3.45;;;2.80;;
27313;SDS011;14800;48.174;9.798;2023-08-01T04:47:09;5.18;;;2.95;;
27313;SDS011;14800;48.174;9.798;2023-08-01T04:49:35;7.72;;;3.47;;
27313;SDS011;14800;48.174;9.798;2023-08-01T04:52:00;4.03;;;3.17;;
27313;SDS011;14800;48.174;9.798;2023-08-01T04:54:26;4.60;;;3.17;;
27313;SDS011;14800;48.174;9.798;2023-08-01T04:56:52;4.38;;;2.92;;
27313;SDS011;14800;48.174;9.798;2023-08-01T04:59:17;3.55;;;2.97;;
27313;SDS011;14800;48.174;9.798;2023-08-01T05:01:43;4.85;;;3.28;;
27313;SDS011;14800;48.174;9.798;2023-08-01T05:04:08;5.60;;;3.42;;
27313;SDS011;14800;48.174;9.798;2023-08-01T05:06:34;4.55;;;3.20;;
27313;SDS011;14800;48.174;9.798;2023-08-01T05:09:00;4.32;;;2.90;;
27313;SDS011;14800;48.174;9.798;2023-08-01T05:11:25;4.18;;;3.20;;
27313;SDS011;14800;48.174;9.798;2023-08-01T05:13:51;4.82;;;2.92;;
27313;SDS011;14800;48.174;9.798;2023-08-01T05:16:16;4.00;;;2.92;;
27313;SDS011;14800;48.174;9.798;2023-08-01T05:18:42;5.57;;;3.13;;
27313;SDS011;14800;48.174;9.798;2023-08-01T05:21:07;4.68;;;3.05;;
27313;SDS011;14800;48.174;9.798;2023-08-01T05:23:33;4.88;;;2.70;;
27313;SDS011;14800;48.174;9.798;2023-08-01T05:25:58;3.67;;;2.92;;
27313;SDS011;14800;48.174;9.798;2023-08-01T05:28:24;4.88;;;2.90;;
27313;SDS011;14800;48.174;9.798;2023-08-01T05:30:50;4.13;;;2.80;;
27313;SDS011;14800;48.174;9.798;2023-08-01T05:33:15;4.13;;;3.08;;
27313;SDS011;14800;48.174;9.798;2023-08-01T05:35:41;4.00;;;3.03;;
27313;SDS011;14800;48.174;9.798;2023-08-01T05:38:06;5.25;;;2.90;;
27313;SDS011;14800;48.174;9.798;2023-08-01T05:40:32;6.95;;;3.00;;
27313;SDS011;14800;48.174;9.798;2023-08-01T05:42:58;3.47;;;2.67;;
27313;SDS011;14800;48.174;9.798;2023-08-01T05:45:24;4.25;;;2.72;;
27313;SDS011;14800;48.174;9.798;2023-08-01T05:47:49;6.28;;;3.20;;
27313;SDS011;14800;48.174;9.798;2023-08-01T05:50:15;3.97;;;3.03;;
27313;SDS011;14800;48.174;9.798;2023-08-01T05:52:40;3.65;;;2.80;;
27313;SDS011;14800;48.174;9.798;2023-08-01T05:55:06;3.50;;;2.75;;
27313;SDS011;14800;48.174;9.798;2023-08-01T05:57:32;3.33;;;2.90;;
27313;SDS011;14800;48.174;9.798;2023-08-01T05:59:58;4.82;;;3.20;;
27313;SDS011;14800;48.174;9.798;2023-08-01T06:02:23;4.85;;;2.92;;
27313;SDS011;14800;48.174;9.798;2023-08-01T06:04:49;4.55;;;3.05;;
27313;SDS011;14800;48.174;9.798;2023-08-01T06:07:15;3.67;;;2.80;;
27313;SDS011;14800;48.174;9.798;2023-08-01T06:09:40;5.03;;;3.33;;
27313;SDS011;14800;48.174;9.798;2023-08-01T06:12:06;4.25;;;2.90;;
27313;SDS011;14800;48.174;9.798;2023-08-01T06:14:32;6.28;;;3.08;;
27313;SDS011;14800;48.174;9.798;2023-08-01T06:16:57;6.10;;;3.03;;
27313;SDS011;14800;48.174;9.798;2023-08-01T06:19:23;5.03;;;3.53;;
27313;SDS011;14800;48.174;9.798;2023-08-01T06:21:48;4.72;;;2.83;;
27313;SDS011;14800;48.174;9.798;2023-08-01T06:24:14;3.90;;;2.80;;
27313;SDS011;14800;48.174;9.798;2023-08-01T06:26:40;4.53;;;3.08;;
27313;SDS011;14800;48.174;9.798;2023-08-01T06:29:05;4.93;;;3.25;;
27313;SDS011;14800;48.174;9.798;2023-08-01T06:31:31;5.78;;;3.28;;
27313;SDS011;14800;48.174;9.798;2023-08-01T06:33:56;3.30;;;2.72;;
27313;SDS011;14800;48.174;9.798;2023-08-01T06:36:22;4.32;;;2.72;;
27313;SDS011;14800;48.174;9.798;2023-08-01T06:38:47;3.80;;;2.88;;
27313;SDS011;14800;48.174;9.798;2023-08-01T06:41:13;3.38;;;3.00;;
27313;SDS011;14800;48.174;9.798;2023-08-01T06:43:39;4.65;;;3.20;;
27313;SDS011;14800;48.174;9.798;2023-08-01T06:46:04;4.43;;;3.35;;
27313;SDS011;14800;48.174;9.798;2023-08-01T06:48:31;4.78;;;2.80;;
27313;SDS011;14800;48.174;9.798;2023-08-01T06:50:59;4.20;;;3.08;;
27313;SDS011;14800;48.174;9.798;2023-08-01T06:53:26;5.50;;;3.00;;
27313;SDS011;14800;48.174;9.798;2023-08-01T06:55:52;4.47;;;2.63;;
27313;SDS011;14800;48.174;9.798;2023-08-01T06:58:18;5.43;;;3.20;;
27313;SDS011;14800;48.174;9.798;2023-08-01T07:00:44;3.15;;;2.47;;
27313;SDS011;14800;48.174;9.798;2023-08-01T07:03:09;4.70;;;3.20;;
27313;SDS011;14800;48.174;9.798;2023-08-01T07:05:35;3.15;;;2.85;;
27313;SDS011;14800;48.174;9.798;2023-08-01T07:08:00;3.20;;;2.60;;
27313;SDS011;14800;48.174;9.798;2023-08-01T07:10:26;4.35;;;2.70;;
27313;SDS011;14800;48.174;9.798;2023-08-01T07:12:52;4.07;;;2.65;;
27313;SDS011;14800;48.174;9.798;2023-08-01T07:15:17;3.45;;;2.85;;
27313;SDS011;14800;48.174;9.798;2023-08-01T07:17:43;5.80;;;2.80;;
27313;SDS011;14800;48.174;9.798;2023-08-01T07:20:08;5.40;;;2.63;;
27313;SDS011;14800;48.174;9.798;2023-08-01T07:22:34;4.43;;;2.75;;
27313;SDS011;14800;48.174;9.798;2023-08-01T07:25:00;5.53;;;2.53;;
27313;SDS011;14800;48.174;9.798;2023-08-01T07:27:25;3.28;;;2.50;;
27313;SDS011;14800;48.174;9.798;2023-08-01T07:29:51;4.00;;;2.42;;
27313;SDS011;14800;48.174;9.798;2023-08-01T07:32:16;3.72;;;2.33;;
27313;SDS011;14800;48.174;9.798;2023-08-01T07:34:42;3.60;;;2.30;;
27313;SDS011;14800;48.174;9.798;2023-08-01T07:37:08;3.70;;;2.28;;
27313;SDS011;14800;48.174;9.798;2023-08-01T07:39:33;2.90;;;2.28;;
27313;SDS011;14800;48.174;9.798;2023-08-01T07:42:00;3.92;;;2.22;;
27313;SDS011;14800;48.174;9.798;2023-08-01T07:44:25;2.55;;;2.35;;
27313;SDS011;14800;48.174;9.798;2023-08-01T07:46:51;4.43;;;2.65;;
27313;SDS011;14800;48.174;9.798;2023-08-01T07:49:16;2.88;;;2.33;;
27313;SDS011;14800;48.174;9.798;2023-08-01T07:51:42;2.72;;;2.20;;
27313;SDS011;14800;48.174;9.798;2023-08-01T07:54:07;3.55;;;2.55;;
27313;SDS011;14800;48.174;9.798;2023-08-01T07:56:33;4.70;;;2.10;;
27313;SDS011;14800;48.174;9.798;2023-08-01T07:58:58;4.35;;;2.70;;
27313;SDS011;14800;48.174;9.798;2023-08-01T08:01:24;3.50;;;2.65;;
27313;SDS011;14800;48.174;9.798;2023-08-01T08:03:50;3.42;;;2.75;;
27313;SDS011;14800;48.174;9.798;2023-08-01T08:06:15;4.10;;;2.70;;
27313;SDS011;14800;48.174;9.798;2023-08-01T08:08:41;2.88;;;2.58;;
27313;SDS011;14800;48.174;9.798;2023-08-01T08:11:06;4.68;;;2.70;;
27313;SDS011;14800;48.174;9.798;2023-08-01T08:13:32;5.30;;;2.97;;
27313;SDS011;14800;48.174;9.798;2023-08-01T08:15:58;4.40;;;2.50;;
27313;SDS011;14800;48.174;9.798;2023-08-01T08:18:24;3.97;;;2.65;;
27313;SDS011;14800;48.174;9.798;2023-08-01T08:20:49;3.88;;;2.47;;
27313;SDS011;14800;48.174;9.798;2023-08-01T08:23:15;3.78;;;2.30;;
27313;SDS011;14800;48.174;9.798;2023-08-01T08:25:43;4.35;;;2.72;;
27313;SDS011;14800;48.174;9.798;2023-08-01T08:28:11;4.05;;;2.47;;
27313;SDS011;14800;48.174;9.798;2023-08-01T08:30:37;4.28;;;2.83;;
27313;SDS011;14800;48.174;9.798;2023-08-01T08:33:03;4.35;;;2.90;;
27313;SDS011;14800;48.174;9.798;2023-08-01T08:35:31;3.88;;;2.72;;
27313;SDS011;14800;48.174;9.798;2023-08-01T08:37:59;3.05;;;2.75;;
27313;SDS011;14800;48.174;9.798;2023-08-01T08:40:24;5.32;;;2.78;;
27313;SDS011;14800;48.174;9.798;2023-08-01T08:42:52;2.95;;;2.70;;
27313;SDS011;14800;48.174;9.798;2023-08-01T08:45:18;3.88;;;2.80;;
27313;SDS011;14800;48.174;9.798;2023-08-01T08:47:45;3.80;;;2.60;;
27313;SDS011;14800;48.174;9.798;2023-08-01T08:50:19;2.90;;;2.33;;
27313;SDS011;14800;48.174;9.798;2023-08-01T08:52:45;3.42;;;2.53;;
27313;SDS011;14800;48.174;9.798;2023-08-01T08:55:11;4.03;;;2.70;;
27313;SDS011;14800;48.174;9.798;2023-08-01T08:57:37;5.53;;;3.08;;
27313;SDS011;14800;48.174;9.798;2023-08-01T09:00:04;4.30;;;2.80;;
27313;SDS011;14800;48.174;9.798;2023-08-01T09:02:32;3.00;;;2.38;;
27313;SDS011;14800;48.174;9.798;2023-08-01T09:04:58;6.80;;;3.00;;
27313;SDS011;14800;48.174;9.798;2023-08-01T09:07:24;3.10;;;2.38;;
27313;SDS011;14800;48.174;9.798;2023-08-01T09:09:58;4.03;;;2.83;;
27313;SDS011;14800;48.174;9.798;2023-08-01T09:12:24;4.90;;;3.13;;
27313;SDS011;14800;48.174;9.798;2023-08-01T09:14:51;4.65;;;2.78;;
27313;SDS011;14800;48.174;9.798;2023-08-01T09:17:21;4.95;;;3.00;;
27313;SDS011;14800;48.174;9.798;2023-08-01T09:19:46;4.00;;;2.45;;
27313;SDS011;14800;48.174;9.798;2023-08-01T09:22:13;4.03;;;2.88;;
27313;SDS011;14800;48.174;9.798;2023-08-01T09:24:50;3.63;;;2.85;;
27313;SDS011;14800;48.174;9.798;2023-08-01T09:27:17;5.45;;;2.80;;
27313;SDS011;14800;48.174;9.798;2023-08-01T09:29:42;4.53;;;3.05;;
27313;SDS011;14800;48.174;9.798;2023-08-01T09:32:12;3.63;;;2.60;;
27313;SDS011;14800;48.174;9.798;2023-08-01T09:34:38;4.90;;;2.80;;
27313;SDS011;14800;48.174;9.798;2023-08-01T09:37:05;3.70;;;2.53;;
27313;SDS011;14800;48.174;9.798;2023-08-01T09:39:31;4.53;;;2.80;;
27313;SDS011;14800;48.174;9.798;2023-08-01T09:41:57;3.95;;;2.60;;
27313;SDS011;14800;48.174;9.798;2023-08-01T09:44:24;4.68;;;2.97;;
27313;SDS011;14800;48.174;9.798;2023-08-01T09:46:58;4.95;;;2.70;;
27313;SDS011;14800;48.174;9.798;2023-08-01T09:49:26;4.80;;;2.92;;
27313;SDS011;14800;48.174;9.798;2023-08-01T09:51:53;4.05;;;2.63;;
27313;SDS011;14800;48.174;9.798;2023-08-01T09:54:20;3.85;;;2.67;;
27313;SDS011;14800;48.174;9.798;2023-08-01T09:56:47;5.00;;;2.65;;
27313;SDS011;14800;48.174;9.798;2023-08-01T09:59:19;3.83;;;2.40;;
27313;SDS011;14800;48.174;9.798;2023-08-01T10:01:49;4.83;;;2.67;;
27313;SDS011;14800;48.174;9.798;2023-08-01T10:04:24;3.78;;;2.58;;
27313;SDS011;14800;48.174;9.798;2023-08-01T10:06:54;2.95;;;2.53;;
27313;SDS011;14800;48.174;9.798;2023-08-01T10:09:24;3.22;;;2.50;;
27313;SDS011;14800;48.174;9.798;2023-08-01T10:11:50;3.72;;;2.50;;
27313;SDS011;14800;48.174;9.798;2023-08-01T10:14:17;2.53;;;2.33;;
27313;SDS011;14800;48.174;9.798;2023-08-01T10:16:46;3.05;;;2.10;;
27313;SDS011;14800;48.174;9.798;2023-08-01T10:19:13;3.42;;;2.38;;
27313;SDS011;14800;48.174;9.798;2023-08-01T10:21:39;2.78;;;2.10;;
27313;SDS011;14800;48.174;9.798;2023-08-01T10:24:08;3.30;;;2.03;;
27313;SDS011;14800;48.174;9.798;2023-08-01T10:26:36;4.13;;;1.75;;
27313;SDS011;14800;48.174;9.798;2023-08-01T10:29:02;2.03;;;1.83;;
27313;SDS011;14800;48.174;9.798;2023-08-01T10:31:28;2.25;;;1.75;;
27313;SDS011;14800;48.174;9.798;2023-08-01T10:34:03;1.75;;;1.42;;
27313;SDS011;14800;48.174;9.798;2023-08-01T10:36:32;2.15;;;1.40;;
27313;SDS011;14800;48.174;9.798;2023-08-01T10:38:59;2.58;;;1.60;;
27313;SDS011;14800;48.174;9.798;2023-08-01T10:41:28;1.55;;;1.33;;
27313;SDS011;14800;48.174;9.798;2023-08-01T10:44:16;2.30;;;1.50;;
27313;SDS011;14800;48.174;9.798;2023-08-01T10:46:48;2.55;;;1.58;;
27313;SDS011;14800;48.174;9.798;2023-08-01T10:49:14;2.05;;;1.50;;
27313;SDS011;14800;48.174;9.798;2023-08-01T10:51:41;1.50;;;1.40;;
27313;SDS011;14800;48.174;9.798;2023-08-01T10:54:07;2.47;;;1.67;;
27313;SDS011;14800;48.174;9.798;2023-08-01T10:56:50;1.85;;;1.67;;
27313;SDS011;14800;48.174;9.798;2023-08-01T10:59:27;2.67;;;1.80;;
27313;SDS011;14800;48.174;9.798;2023-08-01T11:01:53;2.33;;;1.50;;
27313;SDS011;14800;48.174;9.798;2023-08-01T11:04:23;2.15;;;1.60;;
27313;SDS011;14800;48.174;9.798;2023-08-01T11:06:49;2.00;;;1.52;;
27313;SDS011;14800;48.174;9.798;2023-08-01T11:11:48;1.33;;;1.23;;
27313;SDS011;14800;48.174;9.798;2023-08-01T11:14:16;1.55;;;1.45;;
27313;SDS011;14800;48.174;9.798;2023-08-01T11:16:44;1.90;;;1.52;;
27313;SDS011;14800;48.174;9.798;2023-08-01T11:21:51;1.63;;;1.50;;
27313;SDS011;14800;48.174;9.798;2023-08-01T11:24:19;2.00;;;1.50;;
27313;SDS011;14800;48.174;9.798;2023-08-01T11:26:46;2.22;;;1.55;;
27313;SDS011;14800;48.174;9.798;2023-08-01T11:29:14;1.98;;;1.58;;
27313;SDS011;14800;48.174;9.798;2023-08-01T11:31:40;1.70;;;1.52;;
27313;SDS011;14800;48.174;9.798;2023-08-01T11:34:07;1.73;;;1.55;;
27313;SDS011;14800;48.174;9.798;2023-08-01T11:36:36;1.38;;;1.27;;
27313;SDS011;14800;48.174;9.798;2023-08-01T11:39:03;1.85;;;1.63;;
27313;SDS011;14800;48.174;9.798;2023-08-01T11:41:29;2.53;;;1.65;;
27313;SDS011;14800;48.174;9.798;2023-08-01T11:43:55;2.08;;;1.63;;
27313;SDS011;14800;48.174;9.798;2023-08-01T11:46:33;1.63;;;1.50;;
27313;SDS011;14800;48.174;9.798;2023-08-01T11:49:00;2.10;;;1.60;;
27313;SDS011;14800;48.174;9.798;2023-08-01T11:51:27;1.83;;;1.55;;
27313;SDS011;14800;48.174;9.798;2023-08-01T11:54:03;1.77;;;1.60;;
27313;SDS011;14800;48.174;9.798;2023-08-01T11:56:32;1.92;;;1.75;;
27313;SDS011;14800;48.174;9.798;2023-08-01T11:58:58;2.10;;;1.50;;
27313;SDS011;14800;48.174;9.798;2023-08-01T12:01:24;1.33;;;1.23;;
27313;SDS011;14800;48.174;9.798;2023-08-01T12:03:54;1.50;;;1.33;;
27313;SDS011;14800;48.174;9.798;2023-08-01T12:06:20;1.20;;;1.10;;
27313;SDS011;14800;48.174;9.798;2023-08-01T12:08:49;1.75;;;1.40;;
27313;SDS011;14800;48.174;9.798;2023-08-01T12:11:22;2.33;;;1.23;;
27313;SDS011;14800;48.174;9.798;2023-08-01T12:14:00;3.05;;;1.58;;
27313;SDS011;14800;48.174;9.798;2023-08-01T12:16:29;1.98;;;1.50;;
27313;SDS011;14800;48.174;9.798;2023-08-01T12:18:56;2.58;;;1.23;;
27313;SDS011;14800;48.174;9.798;2023-08-01T12:21:22;10.65;;;2.00;;
27313;SDS011;14800;48.174;9.798;2023-08-01T12:23:48;1.35;;;1.25;;
27313;SDS011;14800;48.174;9.798;2023-08-01T12:26:13;1.40;;;1.30;;
27313;SDS011;14800;48.174;9.798;2023-08-01T12:28:39;1.83;;;1.42;;
27313;SDS011;14800;48.174;9.798;2023-08-01T12:31:05;4.20;;;1.70;;
27313;SDS011;14800;48.174;9.798;2023-08-01T12:33:30;2.08;;;1.45;;
27313;SDS011;14800;48.174;9.798;2023-08-01T12:35:57;2.38;;;1.70;;
27313;SDS011;14800;48.174;9.798;2023-08-01T12:38:23;2.58;;;1.85;;
27313;SDS011;14800;48.174;9.798;2023-08-01T12:40:48;2.20;;;1.65;;
27313;SDS011;14800;48.174;9.798;2023-08-01T12:43:14;5.03;;;1.95;;
27313;SDS011;14800;48.174;9.798;2023-08-01T12:45:41;3.25;;;1.92;;
27313;SDS011;14800;48.174;9.798;2023-08-01T12:48:07;1.85;;;1.48;;
27313;SDS011;14800;48.174;9.798;2023-08-01T12:50:32;2.63;;;1.80;;
27313;SDS011;14800;48.174;9.798;2023-08-01T12:52:58;2.25;;;1.27;;
27313;SDS011;14800;48.174;9.798;2023-08-01T12:55:24;2.83;;;1.60;;
27313;SDS011;14800;48.174;9.798;2023-08-01T12:57:49;3.38;;;1.55;;
27313;SDS011;14800;48.174;9.798;2023-08-01T13:00:15;3.55;;;1.85;;
27313;SDS011;14800;48.174;9.798;2023-08-01T13:02:41;2.40;;;1.20;;
27313;SDS011;14800;48.174;9.798;2023-08-01T13:05:06;0.98;;;0.65;;
27313;SDS011;14800;48.174;9.798;2023-08-01T13:07:32;0.80;;;0.50;;
27313;SDS011;14800;48.174;9.798;2023-08-01T13:09:59;0.45;;;0.40;;
27313;SDS011;14800;48.174;9.798;2023-08-01T13:12:25;0.30;;;0.30;;
27313;SDS011;14800;48.174;9.798;2023-08-01T13:14:51;0.40;;;0.38;;
27313;SDS011;14800;48.174;9.798;2023-08-01T13:17:16;0.68;;;0.30;;
27313;SDS011;14800;48.174;9.798;2023-08-01T13:19:42;0.50;;;0.40;;
27313;SDS011;14800;48.174;9.798;2023-08-01T13:22:07;1.17;;;0.50;;
27313;SDS011;14800;48.174;9.798;2023-08-01T13:24:33;1.02;;;0.60;;
27313;SDS011;14800;48.174;9.798;2023-08-01T13:26:58;0.93;;;0.70;;
27313;SDS011;14800;48.174;9.798;2023-08-01T13:29:24;1.30;;;0.70;;
27313;SDS011;14800;48.174;9.798;2023-08-01T13:31:50;0.93;;;0.60;;
27313;SDS011;14800;48.174;9.798;2023-08-01T13:34:15;0.60;;;0.60;;
27313;SDS011;14800;48.174;9.798;2023-08-01T13:36:42;1.63;;;0.50;;
27313;SDS011;14800;48.174;9.798;2023-08-01T13:39:08;0.40;;;0.40;;
27313;SDS011;14800;48.174;9.798;2023-08-01T13:41:34;1.00;;;0.50;;
27313;SDS011;14800;48.174;9.798;2023-08-01T13:44:00;1.48;;;0.50;;
27313;SDS011;14800;48.174;9.798;2023-08-01T13:46:25;1.00;;;0.50;;
27313;SDS011;14800;48.174;9.798;2023-08-01T13:48:51;0.43;;;0.30;;
27313;SDS011;14800;48.174;9.798;2023-08-01T13:51:16;0.65;;;0.38;;
27313;SDS011;14800;48.174;9.798;2023-08-01T13:53:42;0.40;;;0.40;;
27313;SDS011;14800;48.174;9.798;2023-08-01T13:56:11;0.65;;;0.32;;
27313;SDS011;14800;48.174;9.798;2023-08-01T13:58:38;0.40;;;0.30;;
27313;SDS011;14800;48.174;9.798;2023-08-01T14:01:04;1.00;;;0.45;;
27313;SDS011;14800;48.174;9.798;2023-08-01T14:03:32;0.40;;;0.30;;
27313;SDS011;14800;48.174;9.798;2023-08-01T14:06:08;1.73;;;0.32;;
27313;SDS011;14800;48.174;9.798;2023-08-01T14:08:35;1.30;;;0.40;;
27313;SDS011;14800;48.174;9.798;2023-08-01T14:11:01;0.50;;;0.40;;
27313;SDS011;14800;48.174;9.798;2023-08-01T14:13:28;1.95;;;0.40;;
27313;SDS011;14800;48.174;9.798;2023-08-01T14:15:53;1.02;;;0.43;;
27313;SDS011;14800;48.174;9.798;2023-08-01T14:18:19;0.80;;;0.40;;
27313;SDS011;14800;48.174;9.798;2023-08-01T14:20:45;0.50;;;0.50;;
27313;SDS011;14800;48.174;9.798;2023-08-01T14:23:10;1.30;;;0.50;;
27313;SDS011;14800;48.174;9.798;2023-08-01T14:25:36;0.82;;;0.20;;
27313;SDS011;14800;48.174;9.798;2023-08-01T14:28:01;0.88;;;0.40;;
27313;SDS011;14800;48.174;9.798;2023-08-01T14:30:27;0.75;;;0.40;;
27313;SDS011;14800;48.174;9.798;2023-08-01T14:33:02;0.40;;;0.30;;
27313;SDS011;14800;48.174;9.798;2023-08-01T14:35:29;0.50;;;0.40;;
27313;SDS011;14800;48.174;9.798;2023-08-01T14:37:55;0.55;;;0.40;;
27313;SDS011;14800;48.174;9.798;2023-08-01T14:40:21;0.70;;;0.32;;
27313;SDS011;14800;48.174;9.798;2023-08-01T14:42:47;0.88;;;0.40;;
27313;SDS011;14800;48.174;9.798;2023-08-01T14:45:13;0.30;;;0.30;;
27313;SDS011;14800;48.174;9.798;2023-08-01T14:47:39;1.02;;;0.30;;
27313;SDS011;14800;48.174;9.798;2023-08-01T14:50:07;0.50;;;0.50;;